Time;durP1;ratioP1;P1;durP2;ratioP2;P2;SDS_P1;SDS_P2;PMS_P1;PMS_P2;Temp;Humidity;BMP_temperature;BMP_pressure;BME280_temperature;BME280_humidity;BME280_pressure;Samples;Min_cycle;Max_cycle;Signal;HPM_P1;HPM_P2
2023/11/22 00:00:14;;;;;;;14.43;7.00;;;;;;;;;;5067823;28;20028;-87
2023/11/22 00:02:59;;;;;;;12.93;6.32;;;;;;;;;;5090113;28;20019;-87
2023/11/22 00:05:44;;;;;;;10.88;5.78;;;;;;;;;;5105944;28;20028;-85
2023/11/22 00:08:29;;;;;;;11.13;5.85;;;;;;;;;;5089623;28;20078;-87
2023/11/22 00:11:14;;;;;;;11.02;5.88;;;;;;;;;;5091297;28;20036;-86
2023/11/22 00:14:00;;;;;;;12.65;5.80;;;;;;;;;;5100083;28;20040;-85
2023/11/22 00:16:46;;;;;;;5.57;3.60;;;;;;;;;;5084879;28;20093;-85
2023/11/22 00:19:31;;;;;;;5.80;2.78;;;;;;;;;;5064278;28;20382;-85
2023/11/22 00:22:16;;;;;;;3.90;2.83;;;;;;;;;;5064468;28;20399;-85
2023/11/22 00:25:01;;;;;;;4.47;2.60;;;;;;;;;;5069773;28;20033;-85
2023/11/22 00:27:47;;;;;;;4.20;2.83;;;;;;;;;;5065175;28;20024;-85
2023/11/22 00:30:32;;;;;;;4.78;2.28;;;;;;;;;;5067684;28;20445;-86
2023/11/22 00:33:20;;;;;;;3.25;2.47;;;;;;;;;;5067114;28;20157;-84
2023/11/22 00:36:08;;;;;;;4.40;2.60;;;;;;;;;;5079883;28;20023;-86
2023/11/22 00:38:53;;;;;;;4.00;2.65;;;;;;;;;;5070744;28;20024;-85
2023/11/22 00:41:38;;;;;;;3.80;2.55;;;;;;;;;;5071150;28;20020;-85
2023/11/22 00:44:24;;;;;;;5.20;3.60;;;;;;;;;;5088340;27;20121;-85
2023/11/22 00:47:09;;;;;;;4.35;2.58;;;;;;;;;;5079012;28;20366;-85
2023/11/22 00:49:56;;;;;;;5.07;3.28;;;;;;;;;;5071411;28;20035;-84
2023/11/22 00:52:44;;;;;;;5.13;3.15;;;;;;;;;;5071579;28;20046;-84
2023/11/22 00:55:29;;;;;;;6.82;3.35;;;;;;;;;;5075338;28;20040;-85
2023/11/22 00:58:15;;;;;;;5.40;3.33;;;;;;;;;;5074546;28;20116;-84
2023/11/22 01:01:02;;;;;;;6.22;3.38;;;;;;;;;;5067431;28;20036;-85
2023/11/22 01:03:47;;;;;;;6.20;3.70;;;;;;;;;;5086404;28;20397;-85
2023/11/22 01:06:36;;;;;;;6.38;3.65;;;;;;;;;;5079426;28;20355;-86
2023/11/22 01:09:22;;;;;;;4.93;3.22;;;;;;;;;;5077468;28;20027;-85
2023/11/22 01:12:09;;;;;;;5.93;3.58;;;;;;;;;;5069644;28;20060;-84
2023/11/22 01:14:54;;;;;;;6.43;3.85;;;;;;;;;;5070782;28;20035;-84
2023/11/22 01:17:39;;;;;;;7.47;3.90;;;;;;;;;;5071529;28;20036;-85
2023/11/22 01:20:24;;;;;;;7.07;3.95;;;;;;;;;;5074555;28;20019;-85
2023/11/22 01:23:09;;;;;;;8.30;4.75;;;;;;;;;;5088726;28;20049;-85
2023/11/22 01:25:55;;;;;;;6.85;4.10;;;;;;;;;;5073610;28;20031;-84
2023/11/22 01:28:44;;;;;;;8.77;3.83;;;;;;;;;;5072102;28;20043;-86
2023/11/22 01:31:29;;;;;;;5.93;3.78;;;;;;;;;;5066950;28;20036;-84
2023/11/22 01:34:14;;;;;;;8.10;4.47;;;;;;;;;;5064009;28;20028;-85
2023/11/22 01:36:59;;;;;;;6.07;3.50;;;;;;;;;;5065356;28;20121;-86
2023/11/22 01:39:45;;;;;;;6.57;3.63;;;;;;;;;;5071355;27;20023;-85
2023/11/22 01:42:30;;;;;;;7.05;4.40;;;;;;;;;;5088897;28;20074;-86
2023/11/22 01:45:15;;;;;;;6.20;3.88;;;;;;;;;;5069071;28;20038;-86
2023/11/22 01:48:00;;;;;;;6.13;3.67;;;;;;;;;;5073767;28;20577;-85
2023/11/22 01:50:46;;;;;;;7.50;4.28;;;;;;;;;;5069591;28;20104;-85
2023/11/22 01:53:31;;;;;;;5.97;3.95;;;;;;;;;;5069713;28;20039;-84
2023/11/22 01:56:17;;;;;;;4.38;3.40;;;;;;;;;;5067514;28;20020;-84
2023/11/22 01:59:03;;;;;;;5.78;4.05;;;;;;;;;;5067719;28;20069;-86
2023/11/22 02:01:49;;;;;;;6.22;3.55;;;;;;;;;;5076258;28;20028;-85
2023/11/22 02:04:34;;;;;;;5.93;3.83;;;;;;;;;;5080830;28;20035;-87
2023/11/22 02:07:19;;;;;;;6.13;3.60;;;;;;;;;;5064694;28;20526;-87
2023/11/22 02:10:07;;;;;;;5.82;3.38;;;;;;;;;;5066079;28;20020;-84
2023/11/22 02:12:52;;;;;;;5.47;3.53;;;;;;;;;;5066923;28;20032;-85
2023/11/22 02:15:37;;;;;;;5.03;3.70;;;;;;;;;;5073689;28;20512;-86
2023/11/22 02:18:23;;;;;;;6.95;3.38;;;;;;;;;;5071951;28;20016;-84
2023/11/22 02:21:08;;;;;;;5.20;2.95;;;;;;;;;;5068383;28;20329;-85
2023/11/22 02:23:53;;;;;;;6.82;3.78;;;;;;;;;;5066228;28;20061;-85
2023/11/22 02:26:43;;;;;;;5.13;3.03;;;;;;;;;;5068989;28;20024;-84
2023/11/22 02:29:29;;;;;;;;;;;;;;;;;;5069918;28;20032;-84
2023/11/22 02:32:14;;;;;;;5.47;3.22;;;;;;;;;;5082025;28;19912;-84
2023/11/22 02:35:00;;;;;;;6.30;3.80;;;;;;;;;;5079162;28;20028;-85
2023/11/22 02:37:48;;;;;;;5.13;3.05;;;;;;;;;;5109399;27;20030;-84
2023/11/22 02:40:33;;;;;;;4.70;2.67;;;;;;;;;;5069813;28;20168;-86
2023/11/22 02:43:18;;;;;;;5.78;3.38;;;;;;;;;;5079877;28;20031;-84
2023/11/22 02:46:04;;;;;;;4.53;2.95;;;;;;;;;;5066409;28;20036;-86
2023/11/22 02:48:49;;;;;;;6.45;3.88;;;;;;;;;;5063445;28;20035;-84
2023/11/22 02:51:34;;;;;;;11.30;3.92;;;;;;;;;;5071438;28;20153;-79
2023/11/22 02:54:19;;;;;;;5.30;3.00;;;;;;;;;;5067078;28;20024;-80
2023/11/22 02:57:05;;;;;;;6.55;3.58;;;;;;;;;;5072443;28;20119;-79
2023/11/22 02:59:50;;;;;;;6.82;3.83;;;;;;;;;;5078057;28;20027;-79
2023/11/22 03:02:35;;;;;;;7.55;3.70;;;;;;;;;;5090756;28;20028;-79
2023/11/22 03:05:21;;;;;;;6.53;3.65;;;;;;;;;;5072858;28;20093;-79
2023/11/22 03:08:07;;;;;;;5.93;3.60;;;;;;;;;;5083867;28;20059;-79
2023/11/22 03:10:56;;;;;;;6.45;4.13;;;;;;;;;;5081159;28;20032;-79
2023/11/22 03:13:41;;;;;;;7.70;3.40;;;;;;;;;;5065718;28;20093;-79
2023/11/22 03:16:26;;;;;;;6.82;3.42;;;;;;;;;;5072665;28;20309;-80
2023/11/22 03:19:13;;;;;;;6.53;3.50;;;;;;;;;;5066776;28;20024;-82
2023/11/22 03:21:58;;;;;;;6.95;3.70;;;;;;;;;;5085985;28;20372;-80
2023/11/22 03:24:43;;;;;;;6.45;3.42;;;;;;;;;;5083647;28;20015;-80
2023/11/22 03:27:29;;;;;;;5.97;3.60;;;;;;;;;;5090263;28;20024;-82
2023/11/22 03:30:15;;;;;;;7.28;3.53;;;;;;;;;;5070899;28;20031;-81
2023/11/22 03:33:00;;;;;;;5.85;3.67;;;;;;;;;;5088103;27;20508;-81
2023/11/22 03:35:45;;;;;;;5.88;3.53;;;;;;;;;;5075142;28;20104;-81
2023/11/22 03:38:30;;;;;;;4.20;2.78;;;;;;;;;;5069827;28;20035;-81
2023/11/22 03:41:17;;;;;;;7.57;4.32;;;;;;;;;;5083538;28;20554;-81
2023/11/22 03:44:02;;;;;;;4.20;2.95;;;;;;;;;;5071563;28;20020;-81
2023/11/22 03:46:47;;;;;;;7.75;3.85;;;;;;;;;;5070313;28;20107;-81
2023/11/22 03:49:32;;;;;;;5.57;3.28;;;;;;;;;;5079861;28;20039;-80
2023/11/22 03:52:17;;;;;;;6.25;3.75;;;;;;;;;;5077361;28;20076;-80
2023/11/22 03:55:03;;;;;;;4.82;3.13;;;;;;;;;;5072421;28;20032;-80
2023/11/22 03:57:48;;;;;;;6.88;4.05;;;;;;;;;;5068496;28;20028;-81
2023/11/22 04:00:34;;;;;;;7.28;4.53;;;;;;;;;;5065501;28;20052;-80
2023/11/22 04:03:20;;;;;;;6.93;3.50;;;;;;;;;;5083969;28;20034;-79
2023/11/22 04:06:05;;;;;;;6.38;3.72;;;;;;;;;;5080691;28;20031;-79
2023/11/22 04:08:53;;;;;;;7.30;4.35;;;;;;;;;;5085304;28;20072;-80
2023/11/22 04:11:38;;;;;;;6.45;3.88;;;;;;;;;;5077743;28;20119;-80
2023/11/22 04:14:24;;;;;;;7.97;3.50;;;;;;;;;;5086692;28;20028;-80
2023/11/22 04:17:09;;;;;;;5.53;3.55;;;;;;;;;;5089111;28;20410;-79
2023/11/22 04:19:54;;;;;;;7.40;4.35;;;;;;;;;;5072279;28;20059;-79
2023/11/22 04:22:40;;;;;;;7.72;4.00;;;;;;;;;;5089897;28;20122;-78
2023/11/22 04:25:26;;;;;;;5.35;3.60;;;;;;;;;;5066521;28;20027;-79
2023/11/22 04:28:12;;;;;;;7.10;3.67;;;;;;;;;;5068903;27;20499;-80
2023/11/22 04:30:58;;;;;;;7.32;4.35;;;;;;;;;;5077572;28;20028;-80
2023/11/22 04:33:43;;;;;;;5.70;3.60;;;;;;;;;;5070060;28;20035;-81
2023/11/22 04:36:29;;;;;;;8.88;4.07;;;;;;;;;;5078878;28;20020;-79
2023/11/22 04:39:15;;;;;;;8.13;4.60;;;;;;;;;;5069956;28;20072;-79
2023/11/22 04:42:00;;;;;;;7.05;4.30;;;;;;;;;;5088142;28;20020;-81
2023/11/22 04:44:46;;;;;;;6.07;3.70;;;;;;;;;;5086254;28;20054;-82
2023/11/22 04:47:31;;;;;;;7.57;3.97;;;;;;;;;;5081943;28;20065;-82
2023/11/22 04:50:17;;;;;;;8.98;3.88;;;;;;;;;;5074874;28;20020;-82
2023/11/22 04:53:02;;;;;;;6.55;3.70;;;;;;;;;;5083299;28;20096;-80
2023/11/22 04:55:49;;;;;;;4.90;3.40;;;;;;;;;;5074748;28;20032;-80
2023/11/22 04:58:34;;;;;;;5.70;3.95;;;;;;;;;;5069806;28;20386;-80
2023/11/22 05:01:19;;;;;;;9.18;4.25;;;;;;;;;;5061654;28;20026;-80
2023/11/22 05:04:05;;;;;;;6.95;3.67;;;;;;;;;;5070591;28;20032;-80
2023/11/22 05:06:50;;;;;;;5.90;3.85;;;;;;;;;;5074959;28;20031;-79
2023/11/22 05:09:35;;;;;;;7.75;4.03;;;;;;;;;;5069686;28;20027;-79
2023/11/22 05:12:21;;;;;;;6.22;3.63;;;;;;;;;;5064339;28;20020;-80
2023/11/22 05:15:07;;;;;;;6.18;3.75;;;;;;;;;;5075869;28;20416;-80
2023/11/22 05:17:52;;;;;;;4.88;3.22;;;;;;;;;;5088035;28;20030;-80
2023/11/22 05:20:38;;;;;;;5.82;3.67;;;;;;;;;;5080215;28;20481;-80
2023/11/22 05:23:23;;;;;;;5.78;3.40;;;;;;;;;;5084212;28;20031;-78
2023/11/22 05:26:08;;;;;;;5.82;3.80;;;;;;;;;;5068905;28;20097;-78
2023/11/22 05:28:53;;;;;;;7.40;4.05;;;;;;;;;;5067335;28;20169;-78
2023/11/22 05:31:38;;;;;;;7.07;3.75;;;;;;;;;;5071040;28;20052;-78
2023/11/22 05:34:24;;;;;;;5.50;3.47;;;;;;;;;;5086605;28;20309;-80
2023/11/22 05:37:09;;;;;;;7.10;3.25;;;;;;;;;;5066218;28;20020;-80
2023/11/22 05:39:55;;;;;;;12.45;3.72;;;;;;;;;;5066026;28;20032;-80
2023/11/22 05:42:40;;;;;;;4.93;3.00;;;;;;;;;;5074573;28;20209;-79
2023/11/22 05:45:25;;;;;;;6.60;3.67;;;;;;;;;;5077424;28;20024;-81
2023/11/22 05:48:10;;;;;;;7.45;3.90;;;;;;;;;;5078372;28;20032;-81
2023/11/22 05:50:55;;;;;;;5.93;3.78;;;;;;;;;;5068114;28;20483;-80
2023/11/22 05:53:41;;;;;;;6.68;3.47;;;;;;;;;;5067463;28;20027;-81
2023/11/22 05:56:26;;;;;;;5.65;3.38;;;;;;;;;;5073422;28;20032;-81
2023/11/22 05:59:11;;;;;;;4.15;2.70;;;;;;;;;;5083573;28;20505;-81
2023/11/22 06:01:56;;;;;;;7.20;3.60;;;;;;;;;;5080162;28;20027;-82
2023/11/22 06:04:42;;;;;;;10.07;4.88;;;;;;;;;;5085896;28;20023;-81
2023/11/22 06:07:27;;;;;;;5.50;3.28;;;;;;;;;;5071722;28;20024;-80
2023/11/22 06:10:14;;;;;;;7.35;3.25;;;;;;;;;;5072328;28;20023;-80
2023/11/22 06:12:59;;;;;;;9.25;4.18;;;;;;;;;;5085771;28;20035;-83
2023/11/22 06:15:45;;;;;;;7.95;3.63;;;;;;;;;;5076530;28;20032;-83
2023/11/22 06:18:30;;;;;;;6.07;3.65;;;;;;;;;;5069116;28;20027;-86
2023/11/22 06:21:15;;;;;;;5.32;3.35;;;;;;;;;;5079305;27;20792;-83
2023/11/22 06:24:02;;;;;;;6.30;3.38;;;;;;;;;;5077458;28;20040;-85
2023/11/22 06:26:48;;;;;;;4.70;2.90;;;;;;;;;;5077131;28;20028;-84
2023/11/22 06:29:33;;;;;;;9.23;3.47;;;;;;;;;;5068822;28;20024;-84
2023/11/22 06:32:18;;;;;;;6.43;3.35;;;;;;;;;;5054343;28;20060;-83
2023/11/22 06:35:04;;;;;;;5.25;3.10;;;;;;;;;;5040014;28;20383;-84
2023/11/22 06:37:52;;;;;;;8.25;3.75;;;;;;;;;;5039307;28;20023;-83
2023/11/22 06:40:37;;;;;;;10.63;3.55;;;;;;;;;;5039356;28;20039;-82
2023/11/22 06:43:23;;;;;;;7.97;3.50;;;;;;;;;;5044063;28;20032;-83
2023/11/22 06:46:08;;;;;;;6.90;3.97;;;;;;;;;;5048949;28;20044;-85
2023/11/22 06:48:54;;;;;;;5.35;3.50;;;;;;;;;;5045349;28;20029;-83
2023/11/22 06:51:39;;;;;;;5.43;3.15;;;;;;;;;;5040736;28;20091;-82
2023/11/22 06:54:28;;;;;;;5.78;3.10;;;;;;;;;;5043294;28;20032;-81
2023/11/22 06:57:13;;;;;;;5.35;3.58;;;;;;;;;;5049963;28;20029;-83
2023/11/22 06:59:58;;;;;;;6.22;3.08;;;;;;;;;;5054108;28;20027;-83
2023/11/22 07:02:44;;;;;;;5.47;3.15;;;;;;;;;;5055662;28;20051;-83
2023/11/22 07:05:30;;;;;;;5.85;3.15;;;;;;;;;;5045114;28;20033;-83
2023/11/22 07:08:18;;;;;;;7.15;4.00;;;;;;;;;;5045566;28;21030;-82
2023/11/22 07:11:09;;;;;;;5.72;3.35;;;;;;;;;;5026471;28;20032;-83
2023/11/22 07:13:55;;;;;;;5.82;3.47;;;;;;;;;;5039378;28;20363;-84
2023/11/22 07:16:40;;;;;;;6.85;2.80;;;;;;;;;;5039867;28;20021;-85
2023/11/22 07:19:26;;;;;;;5.88;3.03;;;;;;;;;;5049227;28;20365;-84
2023/11/22 07:22:19;;;;;;;4.82;2.80;;;;;;;;;;5040071;28;20024;-83
2023/11/22 07:25:04;;;;;;;5.25;2.75;;;;;;;;;;5034961;28;20108;-85
2023/11/22 07:27:51;;;;;;;4.43;2.47;;;;;;;;;;5020213;28;20029;-83
2023/11/22 07:30:38;;;;;;;5.82;3.35;;;;;;;;;;5007944;28;20391;-83
2023/11/22 07:33:26;;;;;;;5.72;2.95;;;;;;;;;;5053822;28;20123;-84
2023/11/22 07:36:14;;;;;;;5.60;3.03;;;;;;;;;;5054717;28;20030;-83
2023/11/22 07:38:59;;;;;;;4.72;2.70;;;;;;;;;;5062292;28;20032;-83
2023/11/22 07:41:45;;;;;;;5.65;3.13;;;;;;;;;;5060394;28;20103;-81
2023/11/22 07:44:35;;;;;;;5.32;2.85;;;;;;;;;;5067758;28;20028;-80
2023/11/22 07:47:21;;;;;;;4.28;2.75;;;;;;;;;;5061657;28;20024;-81
2023/11/22 07:50:08;;;;;;;3.40;2.40;;;;;;;;;;5060129;28;20035;-81
2023/11/22 07:52:53;;;;;;;6.07;2.75;;;;;;;;;;5060155;28;20032;-83
2023/11/22 07:55:38;;;;;;;3.80;2.45;;;;;;;;;;5059229;28;20506;-84
2023/11/22 07:58:23;;;;;;;4.05;2.60;;;;;;;;;;5069042;28;20379;-86
2023/11/22 08:01:13;;;;;;;5.53;2.53;;;;;;;;;;5068949;28;20024;-85
2023/11/22 08:03:58;;;;;;;4.07;2.60;;;;;;;;;;5077847;28;20032;-86
2023/11/22 08:06:43;;;;;;;8.77;3.20;;;;;;;;;;5073573;28;20043;-86
2023/11/22 08:09:32;;;;;;;4.75;2.88;;;;;;;;;;5074702;28;20051;-86
2023/11/22 08:12:18;;;;;;;5.32;2.95;;;;;;;;;;5065577;28;20016;-86
2023/11/22 08:15:04;;;;;;;4.97;2.58;;;;;;;;;;5092985;28;20083;-87
2023/11/22 08:17:49;;;;;;;4.30;2.53;;;;;;;;;;5089030;28;20024;-84
2023/11/22 08:20:34;;;;;;;5.22;2.58;;;;;;;;;;5070418;28;20066;-84
2023/11/22 08:23:20;;;;;;;5.10;2.70;;;;;;;;;;5090828;28;20077;-83
2023/11/22 08:26:06;;;;;;;6.05;2.75;;;;;;;;;;5072377;28;20693;-84
2023/11/22 08:28:51;;;;;;;6.90;3.60;;;;;;;;;;5066507;28;20032;-83
2023/11/22 08:31:37;;;;;;;6.35;3.40;;;;;;;;;;5051619;28;20028;-83
2023/11/22 08:34:22;;;;;;;4.38;2.35;;;;;;;;;;5068246;28;20020;-85
2023/11/22 08:37:07;;;;;;;4.53;2.85;;;;;;;;;;5066185;28;20020;-83
2023/11/22 08:39:53;;;;;;;4.85;2.67;;;;;;;;;;5070167;28;20023;-84
2023/11/22 08:42:40;;;;;;;5.40;2.70;;;;;;;;;;5079435;28;20027;-86
2023/11/22 08:45:28;;;;;;;6.75;3.08;;;;;;;;;;5056457;28;20348;-83
2023/11/22 08:48:15;;;;;;;5.90;2.80;;;;;;;;;;5068430;28;20370;-82
2023/11/22 08:51:01;;;;;;;5.93;3.03;;;;;;;;;;5068571;28;20706;-83
2023/11/22 08:53:46;;;;;;;5.55;2.63;;;;;;;;;;5068633;28;20020;-85
2023/11/22 08:56:31;;;;;;;4.63;2.53;;;;;;;;;;5069365;28;20121;-85
2023/11/22 08:59:16;;;;;;;4.47;2.67;;;;;;;;;;5078155;28;20690;-85
2023/11/22 09:02:07;;;;;;;9.73;3.67;;;;;;;;;;5063252;28;20080;-82
2023/11/22 09:04:52;;;;;;;7.93;2.78;;;;;;;;;;5065116;28;20023;-83
2023/11/22 09:07:38;;;;;;;6.07;3.10;;;;;;;;;;5073201;28;20051;-83
2023/11/22 09:10:23;;;;;;;4.88;2.60;;;;;;;;;;5069897;28;20097;-84
2023/11/22 09:13:09;;;;;;;5.72;2.78;;;;;;;;;;5073056;27;20042;-86
2023/11/22 09:15:54;;;;;;;5.75;3.25;;;;;;;;;;5071411;28;20461;-84
2023/11/22 09:18:39;;;;;;;6.18;3.42;;;;;;;;;;5064958;28;20036;-84
2023/11/22 09:21:25;;;;;;;5.63;2.92;;;;;;;;;;5069588;28;20111;-85
2023/11/22 09:24:11;;;;;;;6.43;3.08;;;;;;;;;;5068850;28;20032;-84
2023/11/22 09:26:57;;;;;;;6.63;3.30;;;;;;;;;;5068882;28;20042;-84
2023/11/22 09:29:42;;;;;;;5.18;3.05;;;;;;;;;;5076682;28;20028;-83
2023/11/22 09:32:28;;;;;;;7.00;3.35;;;;;;;;;;5072401;28;20055;-81
2023/11/22 09:35:14;;;;;;;8.65;4.13;;;;;;;;;;5072274;28;20289;-83
2023/11/22 09:38:03;;;;;;;6.88;3.28;;;;;;;;;;5070684;28;20022;-82
2023/11/22 09:40:48;;;;;;;7.45;3.30;;;;;;;;;;5064446;28;20056;-83
2023/11/22 09:43:34;;;;;;;7.47;3.80;;;;;;;;;;5056016;28;20032;-83
2023/11/22 09:46:22;;;;;;;6.22;3.53;;;;;;;;;;5041685;28;20245;-82
2023/11/22 09:49:08;;;;;;;8.27;4.15;;;;;;;;;;5065290;28;20084;-83
2023/11/22 09:51:54;;;;;;;6.78;3.22;;;;;;;;;;5072159;28;20023;-82
2023/11/22 09:54:40;;;;;;;6.75;3.13;;;;;;;;;;5069696;28;20084;-82
2023/11/22 09:57:26;;;;;;;6.05;2.95;;;;;;;;;;5074616;28;20043;-81
2023/11/22 10:00:16;;;;;;;6.85;3.63;;;;;;;;;;5072872;28;20517;-84
2023/11/22 10:03:02;;;;;;;6.95;4.20;;;;;;;;;;5053353;28;20055;-83
2023/11/22 10:05:47;;;;;;;9.52;3.60;;;;;;;;;;5064468;28;20107;-83
2023/11/22 10:08:33;;;;;;;7.97;4.15;;;;;;;;;;5075928;28;20023;-84
2023/11/22 10:11:18;;;;;;;7.20;3.65;;;;;;;;;;5065142;28;20036;-84
2023/11/22 10:14:04;;;;;;;7.80;3.95;;;;;;;;;;5069991;28;20046;-86
2023/11/22 10:17:02;;;;;;;7.13;3.88;;;;;;;;;;5078137;28;20032;-86
2023/11/22 10:19:47;;;;;;;6.00;3.20;;;;;;;;;;5071618;28;20092;-83
2023/11/22 10:22:43;;;;;;;10.27;4.40;;;;;;;;;;5071615;28;20012;-85
2023/11/22 10:25:29;;;;;;;9.90;3.85;;;;;;;;;;5066693;28;20017;-86
2023/11/22 10:28:14;;;;;;;5.60;3.60;;;;;;;;;;5072840;28;20028;-86
2023/11/22 10:31:00;;;;;;;10.10;4.95;;;;;;;;;;5070719;28;20035;-86
2023/11/22 10:33:46;;;;;;;9.20;4.40;;;;;;;;;;5072003;28;20551;-84
2023/11/22 10:36:31;;;;;;;6.95;3.80;;;;;;;;;;5072474;28;20158;-83
2023/11/22 10:39:20;;;;;;;6.55;4.35;;;;;;;;;;5048060;28;20328;-83
2023/11/22 10:42:05;;;;;;;9.23;4.22;;;;;;;;;;5039449;28;20521;-85
2023/11/22 10:44:53;;;;;;;6.63;4.00;;;;;;;;;;5041656;28;20097;-83
2023/11/22 10:47:41;;;;;;;7.63;4.55;;;;;;;;;;5037624;28;20028;-82
2023/11/22 10:50:28;;;;;;;6.93;4.05;;;;;;;;;;5065777;28;20028;-82
2023/11/22 10:53:17;;;;;;;10.45;3.88;;;;;;;;;;5074325;28;20027;-84
2023/11/22 10:56:03;;;;;;;;;;;;;;;;;;5081955;28;20027;-85
2023/11/22 10:58:53;;;;;;;7.57;3.85;;;;;;;;;;5083770;28;19918;-83
2023/11/22 11:01:42;;;;;;;7.70;4.43;;;;;;;;;;5072407;28;20031;-82
2023/11/22 11:04:33;;;;;;;8.63;4.20;;;;;;;;;;5074253;28;20039;-84
2023/11/22 11:07:22;;;;;;;11.52;5.68;;;;;;;;;;5066042;28;20036;-86
2023/11/22 11:10:07;;;;;;;10.50;4.47;;;;;;;;;;5067514;28;20031;-84
2023/11/22 11:12:53;;;;;;;10.18;3.75;;;;;;;;;;5072864;28;20028;-84
2023/11/22 11:15:39;;;;;;;8.98;4.65;;;;;;;;;;5062985;28;20252;-84
2023/11/22 11:18:25;;;;;;;9.18;5.00;;;;;;;;;;5068038;28;20035;-85
2023/11/22 11:21:13;;;;;;;11.13;4.72;;;;;;;;;;5066660;28;20605;-86
2023/11/22 11:24:02;;;;;;;8.32;4.72;;;;;;;;;;5071629;28;20035;-83
2023/11/22 11:26:52;;;;;;;7.78;4.43;;;;;;;;;;5071457;28;20356;-84
2023/11/22 11:29:42;;;;;;;9.15;5.07;;;;;;;;;;5069311;28;20655;-83
2023/11/22 11:32:34;;;;;;;12.05;4.85;;;;;;;;;;5065354;28;20152;-83
2023/11/22 11:35:36;;;;;;;10.05;5.13;;;;;;;;;;5064423;28;20028;-84
2023/11/22 11:38:26;;;;;;;10.32;5.72;;;;;;;;;;5054957;28;20044;-84
2023/11/22 11:41:11;;;;;;;;;;;;;;;;;;5059810;28;20079;-83
2023/11/22 11:43:59;;;;;;;8.82;4.72;;;;;;;;;;5071528;28;19969;-86
2023/11/22 11:46:44;;;;;;;6.65;4.05;;;;;;;;;;5071728;28;20024;-85
2023/11/22 11:49:29;;;;;;;14.30;5.18;;;;;;;;;;5068872;28;20028;-85
2023/11/22 11:52:15;;;;;;;7.80;4.57;;;;;;;;;;5057480;28;20085;-84
2023/11/22 11:55:01;;;;;;;10.15;5.00;;;;;;;;;;5059470;28;20036;-86
2023/11/22 11:57:46;;;;;;;8.73;4.65;;;;;;;;;;5068512;28;20063;-86
2023/11/22 12:00:32;;;;;;;8.10;4.53;;;;;;;;;;5061847;28;20024;-83
2023/11/22 12:03:20;;;;;;;9.52;4.80;;;;;;;;;;5063569;28;20028;-83
2023/11/22 12:06:09;;;;;;;10.68;5.20;;;;;;;;;;5053839;28;20025;-84
2023/11/22 12:08:54;;;;;;;6.88;4.03;;;;;;;;;;5069345;28;20226;-83
2023/11/22 12:11:40;;;;;;;8.00;3.78;;;;;;;;;;5070717;28;20019;-86
2023/11/22 12:14:25;;;;;;;9.02;5.20;;;;;;;;;;5064575;28;20028;-85
2023/11/22 12:17:11;;;;;;;6.35;4.30;;;;;;;;;;5063261;28;20374;-85
2023/11/22 12:20:11;;;;;;;10.77;5.28;;;;;;;;;;5067850;28;20024;-84
2023/11/22 12:22:56;;;;;;;11.75;5.20;;;;;;;;;;5077364;28;20024;-88
2023/11/22 12:25:43;;;;;;;9.70;4.30;;;;;;;;;;5061132;28;20461;-86
2023/11/22 12:28:29;;;;;;;8.73;5.35;;;;;;;;;;5074355;28;20277;-85
2023/11/22 12:31:14;;;;;;;11.73;5.03;;;;;;;;;;5070330;28;20406;-87
2023/11/22 12:34:00;;;;;;;8.55;4.50;;;;;;;;;;5070175;28;20063;-87
2023/11/22 12:36:47;;;;;;;9.30;4.95;;;;;;;;;;5063259;28;20476;-85
2023/11/22 12:39:35;;;;;;;7.35;3.97;;;;;;;;;;5077008;28;20029;-86
2023/11/22 12:42:27;;;;;;;7.63;3.97;;;;;;;;;;5070268;28;20036;-87
2023/11/22 12:45:20;;;;;;;9.48;4.80;;;;;;;;;;5072538;28;20078;-84
2023/11/22 12:48:23;;;;;;;7.45;4.35;;;;;;;;;;5065290;28;20546;-84
2023/11/22 12:51:16;;;;;;;9.68;4.30;;;;;;;;;;5061029;28;20555;-86
2023/11/22 12:54:01;;;;;;;7.38;4.32;;;;;;;;;;5070915;28;20185;-81
2023/11/22 12:56:50;;;;;;;6.30;4.43;;;;;;;;;;5073197;28;20090;-84
2023/11/22 12:59:35;;;;;;;9.88;4.80;;;;;;;;;;5070647;28;20024;-87
2023/11/22 13:02:21;;;;;;;8.32;3.83;;;;;;;;;;5053036;28;20060;-87
2023/11/22 13:05:13;;;;;;;8.00;4.30;;;;;;;;;;5070828;28;20097;-87
2023/11/22 13:07:58;;;;;;;9.13;4.57;;;;;;;;;;5073928;28;20129;-87
2023/11/22 13:10:44;;;;;;;8.85;4.85;;;;;;;;;;5070069;28;20027;-83
2023/11/22 13:13:30;;;;;;;9.73;4.80;;;;;;;;;;5064404;28;20074;-88
2023/11/22 13:16:18;;;;;;;10.13;4.88;;;;;;;;;;5062030;28;20383;-85
2023/11/22 13:19:04;;;;;;;11.65;5.18;;;;;;;;;;5065741;28;20056;-87
2023/11/22 13:21:49;;;;;;;13.10;5.60;;;;;;;;;;5049501;28;20012;-87
2023/11/22 13:24:34;;;;;;;35.90;11.68;;;;;;;;;;5065781;28;20023;-90
2023/11/22 13:27:20;;;;;;;13.60;6.47;;;;;;;;;;5068548;28;20028;-84
2023/11/22 13:30:06;;;;;;;9.15;5.30;;;;;;;;;;5074152;28;20039;-81
2023/11/22 13:32:56;;;;;;;8.20;5.10;;;;;;;;;;5074412;28;20121;-83
2023/11/22 13:35:41;;;;;;;11.00;5.45;;;;;;;;;;5065229;28;20029;-85
2023/11/22 13:38:26;;;;;;;9.95;5.65;;;;;;;;;;5062728;28;20024;-84
2023/11/22 13:41:12;;;;;;;9.32;5.45;;;;;;;;;;5066369;28;20043;-85
2023/11/22 13:43:57;;;;;;;9.95;5.10;;;;;;;;;;5066313;28;20035;-87
2023/11/22 13:46:42;;;;;;;11.20;4.93;;;;;;;;;;5055158;28;20049;-84
2023/11/22 13:49:28;;;;;;;10.52;5.65;;;;;;;;;;5071811;28;20036;-85
2023/11/22 13:52:13;;;;;;;8.55;4.80;;;;;;;;;;5061936;28;20031;-84
2023/11/22 13:54:58;;;;;;;8.32;4.43;;;;;;;;;;5067247;28;20051;-85
2023/11/22 13:57:43;;;;;;;8.93;5.05;;;;;;;;;;5051822;28;20020;-85
2023/11/22 14:00:34;;;;;;;10.75;6.05;;;;;;;;;;5070046;28;20032;-87
2023/11/22 14:03:19;;;;;;;9.88;4.63;;;;;;;;;;5074976;28;20379;-85
2023/11/22 14:06:06;;;;;;;8.93;4.75;;;;;;;;;;5070629;28;20109;-86
2023/11/22 14:08:52;;;;;;;9.40;4.93;;;;;;;;;;5062500;28;20059;-86
2023/11/22 14:11:38;;;;;;;11.55;5.18;;;;;;;;;;5070303;28;20043;-87
2023/11/22 14:14:23;;;;;;;10.43;5.53;;;;;;;;;;5071229;28;20036;-86
2023/11/22 14:17:09;;;;;;;11.50;4.70;;;;;;;;;;5064388;28;20589;-90
2023/11/22 14:19:55;;;;;;;9.05;4.75;;;;;;;;;;5058127;28;20024;-88
2023/11/22 14:22:42;;;;;;;8.27;4.78;;;;;;;;;;5078435;28;20028;-87
2023/11/22 14:25:29;;;;;;;9.40;4.85;;;;;;;;;;5065919;28;20437;-87
2023/11/22 14:28:14;;;;;;;10.32;5.47;;;;;;;;;;5068282;28;20116;-87
2023/11/22 14:30:59;;;;;;;10.90;5.40;;;;;;;;;;5071213;28;20043;-85
2023/11/22 14:33:44;;;;;;;8.02;4.72;;;;;;;;;;5063513;28;20052;-85
2023/11/22 14:36:29;;;;;;;7.07;4.30;;;;;;;;;;5077005;28;20062;-86
2023/11/22 14:39:18;;;;;;;9.07;4.85;;;;;;;;;;5064406;28;20470;-89
2023/11/22 14:42:05;;;;;;;9.13;5.05;;;;;;;;;;5060224;28;20043;-86
2023/11/22 14:44:53;;;;;;;9.20;5.38;;;;;;;;;;5068355;28;20039;-89
2023/11/22 14:47:39;;;;;;;9.55;5.13;;;;;;;;;;5071576;28;20035;-88
2023/11/22 14:50:28;;;;;;;12.85;4.70;;;;;;;;;;5075458;28;20032;-88
2023/11/22 14:53:13;;;;;;;9.30;4.70;;;;;;;;;;5062589;28;20035;-91
2023/11/22 14:55:58;;;;;;;11.43;5.50;;;;;;;;;;5059542;28;20566;-89
2023/11/22 14:58:45;;;;;;;7.13;4.32;;;;;;;;;;5061746;28;20024;-90
2023/11/22 15:01:30;;;;;;;10.70;5.07;;;;;;;;;;5063387;28;20046;-90
2023/11/22 15:04:15;;;;;;;10.85;4.72;;;;;;;;;;5068030;28;20072;-90
2023/11/22 15:07:00;;;;;;;9.65;5.13;;;;;;;;;;5066795;28;20780;-90
2023/11/22 15:09:46;;;;;;;9.68;5.13;;;;;;;;;;5063196;28;20490;-89
2023/11/22 15:12:32;;;;;;;10.27;4.80;;;;;;;;;;5070098;28;20081;-89
2023/11/22 15:15:18;;;;;;;12.18;5.13;;;;;;;;;;5066758;28;20068;-89
2023/11/22 15:18:03;;;;;;;7.20;4.65;;;;;;;;;;5053500;28;20052;-90
2023/11/22 15:20:49;;;;;;;9.73;4.72;;;;;;;;;;5068965;28;20034;-87
2023/11/22 15:23:34;;;;;;;13.93;5.72;;;;;;;;;;5064556;28;20028;-87
2023/11/22 15:26:21;;;;;;;9.10;4.93;;;;;;;;;;5060066;28;20064;-88
2023/11/22 15:29:06;;;;;;;10.63;5.57;;;;;;;;;;5060646;28;20043;-87
2023/11/22 15:31:54;;;;;;;8.52;4.85;;;;;;;;;;5069199;28;20054;-87
2023/11/22 15:34:39;;;;;;;10.55;5.63;;;;;;;;;;5068115;28;20436;-88
2023/11/22 15:37:24;;;;;;;7.85;4.35;;;;;;;;;;5069730;28;20112;-86
2023/11/22 15:40:12;;;;;;;10.93;5.07;;;;;;;;;;5055441;28;20088;-88
2023/11/22 15:42:57;;;;;;;11.18;5.15;;;;;;;;;;5076569;28;20031;-88
2023/11/22 15:45:43;;;;;;;11.52;6.22;;;;;;;;;;5070967;28;20032;-89
2023/11/22 15:48:30;;;;;;;14.57;8.27;;;;;;;;;;5085408;28;20036;-88
2023/11/22 15:51:16;;;;;;;12.35;7.03;;;;;;;;;;5081002;28;20432;-89
2023/11/22 15:54:02;;;;;;;9.93;5.47;;;;;;;;;;5076656;28;20508;-88
2023/11/22 15:56:47;;;;;;;14.65;5.22;;;;;;;;;;5080145;28;20043;-90
2023/11/22 15:59:33;;;;;;;10.00;5.43;;;;;;;;;;5068314;28;20028;-90
2023/11/22 16:02:18;;;;;;;7.75;4.53;;;;;;;;;;5072718;28;20274;-88
2023/11/22 16:05:04;;;;;;;9.35;5.15;;;;;;;;;;5077338;28;20027;-87
2023/11/22 16:07:49;;;;;;;10.23;4.57;;;;;;;;;;5068953;28;20031;-86
2023/11/22 16:10:34;;;;;;;7.82;4.65;;;;;;;;;;5083227;28;20077;-87
2023/11/22 16:13:21;;;;;;;7.30;4.35;;;;;;;;;;5068988;28;20139;-87
2023/11/22 16:16:08;;;;;;;7.50;4.00;;;;;;;;;;5070378;28;20016;-88
2023/11/22 16:18:53;;;;;;;8.73;5.03;;;;;;;;;;5091352;28;20023;-89
2023/11/22 16:21:39;;;;;;;9.55;5.18;;;;;;;;;;5099655;28;20032;-89
2023/11/22 16:24:24;;;;;;;10.65;5.28;;;;;;;;;;5096910;28;20019;-89
2023/11/22 16:27:10;;;;;;;9.48;5.40;;;;;;;;;;5087676;28;20020;-88
2023/11/22 16:29:55;;;;;;;10.65;5.85;;;;;;;;;;5107319;28;20011;-83
2023/11/22 16:32:41;;;;;;;9.82;5.15;;;;;;;;;;5078568;28;20071;-82